createdAt,value
2022-12-18T00:02:05.516Z,-5.67
2022-12-18T00:04:37.100Z,-5.67
2022-12-18T00:07:07.023Z,-5.65
2022-12-18T00:09:40.056Z,-5.63
2022-12-18T00:14:44.554Z,-5.59
2022-12-18T00:17:12.836Z,-5.59
2022-12-18T00:19:43.814Z,-5.58
2022-12-18T00:22:23.124Z,-5.59
2022-12-18T00:24:51.583Z,-5.59
2022-12-18T00:27:22.076Z,-5.58
2022-12-18T00:29:50.574Z,-5.58
2022-12-18T00:32:21.822Z,-5.59
2022-12-18T00:34:50.129Z,-5.59
2022-12-18T00:37:20.302Z,-5.60
2022-12-18T00:39:54.799Z,-5.60
2022-12-18T00:42:41.596Z,-5.60
2022-12-18T00:45:12.559Z,-5.57
2022-12-18T00:47:44.813Z,-5.55
2022-12-18T00:50:13.918Z,-5.53
2022-12-18T00:52:47.657Z,-5.52
2022-12-18T00:55:18.309Z,-5.53
2022-12-18T00:57:52.965Z,-5.54
2022-12-18T01:00:21.631Z,-5.53
2022-12-18T01:02:50.000Z,-5.54
2022-12-18T01:05:18.833Z,-5.54
2022-12-18T01:07:47.586Z,-5.54
2022-12-18T01:10:16.790Z,-5.54
2022-12-18T01:12:49.344Z,-5.53
2022-12-18T01:15:18.556Z,-5.52
2022-12-18T01:17:46.797Z,-5.49
2022-12-18T01:20:16.349Z,-5.46
2022-12-18T01:22:45.199Z,-5.43
2022-12-18T01:25:14.799Z,-5.39
2022-12-18T01:27:45.338Z,-5.37
2022-12-18T01:30:15.031Z,-5.35
2022-12-18T01:32:43.804Z,-5.32
2022-12-18T01:35:12.659Z,-5.30
2022-12-18T01:37:43.357Z,-5.29
2022-12-18T01:40:12.882Z,-5.29
2022-12-18T01:42:44.952Z,-5.29
2022-12-18T01:45:32.911Z,-5.27
2022-12-18T01:48:04.807Z,-5.24
2022-12-18T01:50:35.533Z,-5.23
2022-12-18T01:53:07.791Z,-5.23
2022-12-18T01:55:40.775Z,-5.23
2022-12-18T01:58:12.913Z,-5.23
2022-12-18T02:00:41.220Z,-5.24
2022-12-18T02:03:09.679Z,-5.26
2022-12-18T02:05:45.883Z,-5.25
2022-12-18T02:08:20.433Z,-5.25
2022-12-18T02:10:58.191Z,-5.25
2022-12-18T02:13:47.703Z,-5.27
2022-12-18T02:16:24.837Z,-5.28
2022-12-18T02:19:00.819Z,-5.29
2022-12-18T02:21:44.111Z,-5.31
2022-12-18T02:24:23.190Z,-5.33
2022-12-18T02:26:59.689Z,-5.34
2022-12-18T02:29:34.470Z,-5.32
2022-12-18T02:32:12.931Z,-5.30
2022-12-18T02:34:44.953Z,-5.26
2022-12-18T02:37:22.359Z,-5.23
2022-12-18T02:39:51.700Z,-5.24
2022-12-18T02:42:20.494Z,-5.28
2022-12-18T02:44:50.682Z,-5.30
2022-12-18T02:47:21.697Z,-5.29
2022-12-18T02:49:56.671Z,-5.29
2022-12-18T02:52:32.675Z,-5.29
2022-12-18T02:55:12.774Z,-5.29
2022-12-18T02:57:45.454Z,-5.31
2022-12-18T03:00:18.169Z,-5.33
2022-12-18T03:02:51.520Z,-5.36
2022-12-18T03:05:22.482Z,-5.40
2022-12-18T03:08:00.769Z,-5.44
2022-12-18T03:10:31.258Z,-5.45
2022-12-18T03:13:04.338Z,-5.45
2022-12-18T03:15:39.149Z,-5.46
2022-12-18T03:18:11.390Z,-5.46
2022-12-18T03:20:44.153Z,-5.48
2022-12-18T03:23:22.322Z,-5.48
2022-12-18T03:25:57.630Z,-5.49
2022-12-18T03:28:26.902Z,-5.52
2022-12-18T03:30:57.989Z,-5.53
2022-12-18T03:33:30.008Z,-5.57
2022-12-18T03:35:58.397Z,-5.58
2022-12-18T03:38:29.060Z,-5.56
2022-12-18T03:41:04.477Z,-5.54
2022-12-18T03:43:43.972Z,-5.56
2022-12-18T03:46:18.555Z,-5.59
2022-12-18T03:48:52.813Z,-5.62
2022-12-18T03:51:25.881Z,-5.63
2022-12-18T03:53:57.049Z,-5.63
2022-12-18T03:56:29.915Z,-5.62
2022-12-18T03:58:59.875Z,-5.63
2022-12-18T04:01:32.938Z,-5.62
2022-12-18T04:04:02.788Z,-5.60
2022-12-18T04:06:32.277Z,-5.59
2022-12-18T04:09:01.371Z,-5.57
2022-12-18T04:11:30.375Z,-5.55
2022-12-18T04:13:59.539Z,-5.53
2022-12-18T04:16:29.764Z,-5.52
2022-12-18T04:19:00.733Z,-5.52
2022-12-18T04:21:29.066Z,-5.52
2022-12-18T04:23:57.448Z,-5.53
2022-12-18T04:26:25.755Z,-5.56
2022-12-18T04:28:54.122Z,-5.59
2022-12-18T04:31:23.463Z,-5.61
2022-12-18T04:33:52.596Z,-5.64
2022-12-18T04:36:22.435Z,-5.66
2022-12-18T04:38:50.963Z,-5.68
2022-12-18T04:41:19.605Z,-5.70
2022-12-18T04:43:48.183Z,-5.71
2022-12-18T04:46:16.768Z,-5.73
2022-12-18T04:48:47.090Z,-5.73
2022-12-18T04:51:16.465Z,-5.71
2022-12-18T04:53:45.013Z,-5.68
2022-12-18T04:56:15.770Z,-5.66
2022-12-18T04:58:45.838Z,-5.64
2022-12-18T05:01:17.883Z,-5.63
2022-12-18T05:03:46.811Z,-5.64
2022-12-18T05:06:15.826Z,-5.65
2022-12-18T05:08:44.829Z,-5.67
2022-12-18T05:11:16.056Z,-5.68
2022-12-18T05:13:45.267Z,-5.67
2022-12-18T05:16:14.655Z,-5.65
2022-12-18T05:18:43.401Z,-5.63
2022-12-18T05:21:12.133Z,-5.62
2022-12-18T05:23:40.620Z,-5.62
2022-12-18T05:26:18.576Z,-5.65
2022-12-18T05:28:47.331Z,-5.67
2022-12-18T05:31:16.210Z,-5.70
2022-12-18T05:33:44.808Z,-5.72
2022-12-18T05:36:13.815Z,-5.73
2022-12-18T05:38:42.267Z,-5.73
2022-12-18T05:41:10.975Z,-5.75
2022-12-18T05:43:42.250Z,-5.78
2022-12-18T05:46:14.243Z,-5.79
2022-12-18T05:48:43.299Z,-5.79
2022-12-18T05:51:13.287Z,-5.82
2022-12-18T05:53:44.184Z,-5.85
2022-12-18T05:56:14.945Z,-5.87
2022-12-18T05:58:44.543Z,-5.88
2022-12-18T06:01:15.279Z,-5.88
2022-12-18T06:03:44.344Z,-5.91
2022-12-18T06:06:18.384Z,-5.93
2022-12-18T06:08:47.884Z,-5.94
2022-12-18T06:11:19.553Z,-5.96
2022-12-18T06:13:53.510Z,-5.98
2022-12-18T06:16:24.809Z,-6.01
2022-12-18T06:18:56.411Z,-6.04
2022-12-18T06:21:28.164Z,-6.06
2022-12-18T06:23:58.823Z,-6.07
2022-12-18T06:26:29.758Z,-6.07
2022-12-18T06:28:58.618Z,-6.08
2022-12-18T06:31:28.194Z,-6.08
2022-12-18T06:33:57.836Z,-6.09
2022-12-18T06:36:26.107Z,-6.11
2022-12-18T06:38:54.326Z,-6.13
2022-12-18T06:41:23.242Z,-6.15
2022-12-18T06:43:59.423Z,-6.15
2022-12-18T06:46:30.251Z,-6.16
2022-12-18T06:48:58.564Z,-6.17
2022-12-18T06:51:27.018Z,-6.19
2022-12-18T06:53:55.480Z,-6.19
2022-12-18T06:56:24.162Z,-6.19
2022-12-18T06:58:53.330Z,-6.19
2022-12-18T07:01:22.533Z,-6.17
2022-12-18T07:03:57.320Z,-6.17
2022-12-18T07:06:26.767Z,-6.16
2022-12-18T07:08:55.338Z,-6.16
2022-12-18T07:11:23.826Z,-6.15
2022-12-18T07:13:53.858Z,-6.16
2022-12-18T07:16:25.635Z,-6.17
2022-12-18T07:18:56.212Z,-6.17
2022-12-18T07:21:25.355Z,-6.15
2022-12-18T07:23:53.594Z,-6.13
2022-12-18T07:26:23.824Z,-6.12
2022-12-18T07:28:59.187Z,-6.08
2022-12-18T07:31:28.854Z,-6.03
2022-12-18T07:33:57.902Z,-5.97
2022-12-18T07:36:26.757Z,-5.92
2022-12-18T07:38:57.404Z,-5.88
2022-12-18T07:41:28.514Z,-5.85
2022-12-18T07:43:56.845Z,-5.79
2022-12-18T07:46:27.269Z,-5.74
2022-12-18T07:48:55.914Z,-5.69
2022-12-18T07:51:24.569Z,-5.65
2022-12-18T07:53:52.936Z,-5.62
2022-12-18T07:56:29.067Z,-5.62
2022-12-18T07:58:59.508Z,-5.62
2022-12-18T08:01:28.567Z,-5.59
2022-12-18T08:03:57.710Z,-5.54
2022-12-18T08:06:26.087Z,-5.51
2022-12-18T08:08:57.185Z,-5.51
2022-12-18T08:11:28.406Z,-5.53
2022-12-18T08:13:58.590Z,-5.53
2022-12-18T08:16:27.501Z,-5.52
2022-12-18T08:18:56.090Z,-5.52
2022-12-18T08:21:26.660Z,-5.52
2022-12-18T08:23:57.508Z,-5.51
2022-12-18T08:26:27.402Z,-5.50
2022-12-18T08:28:56.899Z,-5.47
2022-12-18T08:31:27.068Z,-5.44
2022-12-18T08:33:59.496Z,-5.39
2022-12-18T08:36:28.029Z,-5.35
2022-12-18T08:39:03.702Z,-5.31
2022-12-18T08:41:32.482Z,-5.25
2022-12-18T08:44:19.801Z,-5.21
2022-12-18T08:46:48.314Z,-5.17
2022-12-18T08:49:16.939Z,-5.14
2022-12-18T08:51:45.328Z,-5.09
2022-12-18T08:54:14.237Z,-5.05
2022-12-18T08:56:42.472Z,-5.02
2022-12-18T08:59:17.321Z,-4.97
2022-12-18T09:01:48.498Z,-4.92
2022-12-18T09:04:18.873Z,-4.89
2022-12-18T09:06:49.469Z,-4.88
2022-12-18T09:09:18.081Z,-4.88
2022-12-18T09:11:47.022Z,-4.88
2022-12-18T09:14:15.909Z,-4.87
2022-12-18T09:16:46.783Z,-4.82
2022-12-18T09:19:15.636Z,-4.79
2022-12-18T09:21:48.310Z,-4.81
2022-12-18T09:24:17.529Z,-4.81
2022-12-18T09:26:47.241Z,-4.81
2022-12-18T09:29:19.014Z,-4.80
2022-12-18T09:31:50.648Z,-4.79
2022-12-18T09:34:21.496Z,-4.80
2022-12-18T09:36:50.683Z,-4.81
2022-12-18T09:39:20.116Z,-4.77
2022-12-18T09:41:57.228Z,-4.73
2022-12-18T09:44:28.692Z,-4.68
2022-12-18T09:47:04.039Z,-4.64
2022-12-18T09:49:35.093Z,-4.62
2022-12-18T09:52:09.531Z,-4.56
2022-12-18T09:54:44.676Z,-4.49
2022-12-18T09:57:16.282Z,-4.39
2022-12-18T09:59:50.644Z,-4.32
2022-12-18T10:02:22.051Z,-4.27
2022-12-18T10:05:01.443Z,-4.20
2022-12-18T10:07:34.218Z,-4.12
2022-12-18T10:10:07.576Z,-4.00
2022-12-18T10:12:41.419Z,-3.89
2022-12-18T10:15:16.209Z,-3.80
2022-12-18T10:17:49.467Z,-3.79
2022-12-18T10:20:24.487Z,-3.87
2022-12-18T10:23:00.477Z,-3.87
2022-12-18T10:25:32.328Z,-3.88
2022-12-18T10:28:10.808Z,-3.89
2022-12-18T10:30:42.548Z,-3.90
2022-12-18T10:33:13.067Z,-3.89
2022-12-18T10:35:42.926Z,-3.91
2022-12-18T10:38:25.387Z,-3.93
2022-12-18T10:40:55.715Z,-3.94
2022-12-18T10:43:26.178Z,-3.94
2022-12-18T10:46:04.013Z,-3.95
2022-12-18T10:48:34.854Z,-3.96
2022-12-18T10:51:12.990Z,-4.00
2022-12-18T10:53:43.851Z,-3.99
2022-12-18T10:56:12.770Z,-3.99
2022-12-18T10:58:41.695Z,-4.02
2022-12-18T11:01:12.673Z,-4.01
2022-12-18T11:03:42.959Z,-3.98
2022-12-18T11:06:13.446Z,-3.95
2022-12-18T11:08:42.993Z,-3.91
2022-12-18T11:11:21.454Z,-3.87
2022-12-18T11:14:03.276Z,-3.82
2022-12-18T11:16:36.168Z,-3.76
2022-12-18T11:19:22.187Z,-3.68
2022-12-18T11:21:51.426Z,-3.62
2022-12-18T11:24:24.129Z,-3.55
2022-12-18T11:26:57.816Z,-3.48
2022-12-18T11:29:33.499Z,-3.40
2022-12-18T11:32:25.629Z,-3.35
2022-12-18T11:34:59.615Z,-3.32
2022-12-18T11:37:27.026Z,-3.30
2022-12-18T11:39:58.447Z,-3.29
2022-12-18T11:42:32.046Z,-3.30
2022-12-18T11:45:03.409Z,-3.32
2022-12-18T11:47:38.007Z,-3.33
2022-12-18T11:50:15.736Z,-3.32
2022-12-18T11:52:44.987Z,-3.32
2022-12-18T11:55:15.634Z,-3.30
2022-12-18T11:57:51.550Z,-3.27
2022-12-18T12:00:22.132Z,-3.26
2022-12-18T12:03:16.486Z,-3.25
2022-12-18T12:05:52.409Z,-3.26
2022-12-18T12:08:28.410Z,-3.28
2022-12-18T12:11:03.043Z,-3.30
2022-12-18T12:13:41.445Z,-3.28
2022-12-18T12:16:18.147Z,-3.24
2022-12-18T12:19:05.171Z,-3.23
2022-12-18T12:21:40.075Z,-3.20
2022-12-18T12:24:21.132Z,-3.21
2022-12-18T12:26:56.270Z,-3.23
2022-12-18T12:29:34.805Z,-3.24
2022-12-18T12:32:20.323Z,-3.22
2022-12-18T12:35:00.827Z,-3.22
2022-12-18T12:37:40.411Z,-3.24
2022-12-18T12:40:48.435Z,-3.25
2022-12-18T12:43:13.515Z,-3.26
2022-12-18T12:45:44.357Z,-3.27
2022-12-18T12:48:18.916Z,-3.30
2022-12-18T12:50:49.146Z,-3.32
2022-12-18T12:53:24.881Z,-3.33
2022-12-18T12:55:55.725Z,-3.32
2022-12-18T12:58:32.627Z,-3.33
2022-12-18T13:01:09.293Z,-3.35
2022-12-18T13:03:45.266Z,-3.36
2022-12-18T13:06:20.082Z,-3.37
2022-12-18T13:08:57.914Z,-3.37
2022-12-18T13:11:59.747Z,-3.39
2022-12-18T13:14:33.767Z,-3.40
2022-12-18T13:17:31.353Z,-3.43
2022-12-18T13:20:11.812Z,-3.43
2022-12-18T13:22:44.232Z,-3.43
2022-12-18T13:25:33.960Z,-3.41
2022-12-18T13:28:08.935Z,-3.41
2022-12-18T13:30:48.968Z,-3.40
2022-12-18T13:34:02.072Z,-3.40
2022-12-18T13:36:32.083Z,-3.42
2022-12-18T13:39:35.260Z,-3.44
2022-12-18T13:42:54.199Z,-3.46
2022-12-18T13:45:46.130Z,-3.48
2022-12-18T13:48:24.862Z,-3.49
2022-12-18T13:51:03.767Z,-3.50
2022-12-18T13:53:36.808Z,-3.51
2022-12-18T13:56:06.143Z,-3.52
2022-12-18T13:58:34.712Z,-3.56
2022-12-18T14:01:05.678Z,-3.60
2022-12-18T14:03:34.262Z,-3.62
2022-12-18T14:06:05.480Z,-3.65
2022-12-18T14:08:40.881Z,-3.67
2022-12-18T14:11:20.147Z,-3.68
2022-12-18T14:13:50.366Z,-3.70
2022-12-18T14:16:19.518Z,-3.73
2022-12-18T14:18:51.724Z,-3.78
2022-12-18T14:21:23.184Z,-3.83
2022-12-18T14:24:05.027Z,-3.86
2022-12-18T14:26:33.817Z,-3.87
2022-12-18T14:29:18.309Z,-3.86
2022-12-18T14:31:46.819Z,-3.86
2022-12-18T14:34:17.793Z,-3.86
2022-12-18T14:36:56.299Z,-3.86
2022-12-18T14:39:25.813Z,-3.85
2022-12-18T14:41:54.864Z,-3.85
2022-12-18T14:44:23.139Z,-3.87
2022-12-18T14:46:52.081Z,-3.88
2022-12-18T14:49:24.339Z,-3.89
2022-12-18T14:51:53.993Z,-3.88
2022-12-18T14:54:23.718Z,-3.89
2022-12-18T14:56:55.291Z,-3.91
2022-12-18T14:59:25.163Z,-3.93
2022-12-18T15:02:00.511Z,-3.93
2022-12-18T15:04:31.862Z,-3.94
2022-12-18T15:07:20.883Z,-3.98
2022-12-18T15:10:09.087Z,-4.04
2022-12-18T15:12:39.901Z,-4.11
2022-12-18T15:15:40.783Z,-4.16
2022-12-18T15:18:14.019Z,-4.22
2022-12-18T15:20:44.441Z,-4.26
2022-12-18T15:23:16.802Z,-4.28
2022-12-18T15:25:45.528Z,-4.30
2022-12-18T15:28:26.273Z,-4.31
2022-12-18T15:31:05.772Z,-4.32
2022-12-18T15:33:36.238Z,-4.32
2022-12-18T15:36:09.039Z,-4.32
2022-12-18T15:38:41.414Z,-4.32
2022-12-18T15:41:21.433Z,-4.32
2022-12-18T15:43:56.708Z,-4.30
2022-12-18T15:46:28.106Z,-4.27
2022-12-18T15:49:02.149Z,-4.23
2022-12-18T15:51:38.625Z,-4.21
2022-12-18T15:54:13.565Z,-4.19
2022-12-18T15:57:00.778Z,-4.18
2022-12-18T15:59:29.433Z,-4.17
2022-12-18T16:02:00.291Z,-4.18
2022-12-18T16:04:29.402Z,-4.19
2022-12-18T16:07:14.379Z,-4.19
2022-12-18T16:09:43.621Z,-4.20
2022-12-18T16:12:16.627Z,-4.19
2022-12-18T16:14:45.305Z,-4.18
2022-12-18T16:17:15.055Z,-4.17
2022-12-18T16:19:44.184Z,-4.19
2022-12-18T16:22:28.470Z,-4.21
2022-12-18T16:24:57.756Z,-4.22
2022-12-18T16:27:26.632Z,-4.23
2022-12-18T16:29:54.922Z,-4.25
2022-12-18T16:32:24.841Z,-4.26
2022-12-18T16:34:53.326Z,-4.28
2022-12-18T16:37:21.602Z,-4.28
2022-12-18T16:39:49.881Z,-4.30
2022-12-18T16:42:20.884Z,-4.30
2022-12-18T16:44:50.281Z,-4.31
2022-12-18T16:47:19.526Z,-4.32
2022-12-18T16:49:51.094Z,-4.34
2022-12-18T16:52:19.769Z,-4.35
2022-12-18T16:54:48.604Z,-4.37
2022-12-18T16:57:19.756Z,-4.42
2022-12-18T16:59:50.271Z,-4.47
2022-12-18T17:02:23.712Z,-4.49
2022-12-18T17:04:55.688Z,-4.52
2022-12-18T17:07:24.804Z,-4.54
2022-12-18T17:09:53.473Z,-4.54
2022-12-18T17:12:22.719Z,-4.54
2022-12-18T17:14:51.078Z,-4.56
2022-12-18T17:17:21.916Z,-4.58
2022-12-18T17:19:52.101Z,-4.58
2022-12-18T17:22:22.500Z,-4.61
2022-12-18T17:24:51.606Z,-4.63
2022-12-18T17:27:20.787Z,-4.64
2022-12-18T17:29:49.522Z,-4.65
2022-12-18T17:32:18.214Z,-4.67
2022-12-18T17:34:47.867Z,-4.66
2022-12-18T17:37:16.495Z,-4.69
2022-12-18T17:39:44.756Z,-4.74
2022-12-18T17:42:15.932Z,-4.78
2022-12-18T17:44:44.946Z,-4.80
2022-12-18T17:47:14.380Z,-4.80
2022-12-18T17:49:43.263Z,-4.79
2022-12-18T17:52:12.004Z,-4.78
2022-12-18T17:54:41.538Z,-4.78
2022-12-18T17:57:10.861Z,-4.78
2022-12-18T17:59:39.150Z,-4.80
2022-12-18T18:02:10.358Z,-4.80
2022-12-18T18:04:39.189Z,-4.80
2022-12-18T18:07:07.450Z,-4.80
2022-12-18T18:09:35.946Z,-4.82
2022-12-18T18:12:22.884Z,-4.83
2022-12-18T18:14:51.686Z,-4.83
2022-12-18T18:17:20.165Z,-4.84
2022-12-18T18:19:49.710Z,-4.85
2022-12-18T18:22:19.494Z,-4.87
2022-12-18T18:24:48.689Z,-4.88
2022-12-18T18:27:17.241Z,-4.90
2022-12-18T18:29:45.680Z,-4.93
2022-12-18T18:32:13.953Z,-4.96
2022-12-18T18:34:42.226Z,-4.98
2022-12-18T18:37:11.444Z,-5.01
2022-12-18T18:39:40.062Z,-5.05
2022-12-18T18:42:08.447Z,-5.06
2022-12-18T18:44:37.315Z,-5.07
2022-12-18T18:47:07.400Z,-5.10
2022-12-18T18:49:38.126Z,-5.14
2022-12-18T18:52:09.175Z,-5.18
2022-12-18T18:54:37.591Z,-5.21
2022-12-18T18:57:24.245Z,-5.26
2022-12-18T18:59:54.821Z,-5.31
2022-12-18T19:02:23.533Z,-5.34
2022-12-18T19:04:51.960Z,-5.37
2022-12-18T19:07:29.744Z,-5.39
2022-12-18T19:10:04.608Z,-5.41
2022-12-18T19:12:53.243Z,-5.43
2022-12-18T19:15:21.837Z,-5.45
2022-12-18T19:17:50.764Z,-5.47
2022-12-18T19:20:19.426Z,-5.49
2022-12-18T19:22:50.948Z,-5.51
2022-12-18T19:25:38.015Z,-5.54
2022-12-18T19:28:21.904Z,-5.58
2022-12-18T19:30:57.318Z,-5.62
2022-12-18T19:33:44.409Z,-5.64
2022-12-18T19:36:17.517Z,-5.64
2022-12-18T19:38:46.217Z,-5.65
2022-12-18T19:41:14.933Z,-5.66
2022-12-18T19:43:43.414Z,-5.69
2022-12-18T19:46:14.113Z,-5.70
2022-12-18T19:48:43.597Z,-5.71
2022-12-18T19:51:15.384Z,-5.71
2022-12-18T19:53:43.668Z,-5.72
2022-12-18T19:56:20.090Z,-5.73
2022-12-18T19:58:48.497Z,-5.75
2022-12-18T20:01:18.172Z,-5.77
2022-12-18T20:03:52.765Z,-5.79
2022-12-18T20:06:26.095Z,-5.79
2022-12-18T20:08:59.454Z,-5.79
2022-12-18T20:11:30.186Z,-5.79
2022-12-18T20:14:01.662Z,-5.79
2022-12-18T20:16:30.847Z,-5.79
2022-12-18T20:19:00.177Z,-5.78
2022-12-18T20:21:31.611Z,-5.78
2022-12-18T20:24:01.863Z,-5.78
2022-12-18T20:26:30.543Z,-5.79
2022-12-18T20:28:58.783Z,-5.80
2022-12-18T20:31:27.177Z,-5.81
2022-12-18T20:33:59.601Z,-5.81
2022-12-18T20:36:29.555Z,-5.82
2022-12-18T20:39:01.668Z,-5.81
2022-12-18T20:41:36.447Z,-5.80
2022-12-18T20:44:11.012Z,-5.80
2022-12-18T20:46:54.653Z,-5.80
2022-12-18T20:49:23.761Z,-5.79
2022-12-18T20:51:53.070Z,-5.77
2022-12-18T20:54:21.888Z,-5.75
2022-12-18T20:56:51.134Z,-5.74
2022-12-18T20:59:19.761Z,-5.75
2022-12-18T21:01:49.370Z,-5.75
2022-12-18T21:04:18.961Z,-5.77
2022-12-18T21:06:52.909Z,-5.78
2022-12-18T21:09:22.957Z,-5.78
2022-12-18T21:12:11.106Z,-5.78
2022-12-18T21:14:43.608Z,-5.77
2022-12-18T21:17:12.310Z,-5.75
2022-12-18T21:19:40.741Z,-5.74
2022-12-18T21:22:10.544Z,-5.74
2022-12-18T21:24:39.210Z,-5.76
2022-12-18T21:27:07.455Z,-5.76
2022-12-18T21:29:35.932Z,-5.77
2022-12-18T21:32:05.032Z,-5.76
2022-12-18T21:34:34.617Z,-5.75
2022-12-18T21:37:04.244Z,-5.78
2022-12-18T21:39:32.928Z,-5.81
2022-12-18T21:42:30.966Z,-5.84
2022-12-18T21:44:59.904Z,-5.88
2022-12-18T21:47:28.160Z,-5.90
2022-12-18T21:49:56.409Z,-5.93
2022-12-18T21:52:31.281Z,-5.94
2022-12-18T21:55:08.043Z,-5.96
2022-12-18T21:57:38.174Z,-5.96
2022-12-18T22:00:18.538Z,-5.97
2022-12-18T22:02:48.816Z,-5.98
2022-12-18T22:05:37.037Z,-5.97
2022-12-18T22:08:06.336Z,-5.97
2022-12-18T22:10:35.668Z,-5.98
2022-12-18T22:13:06.072Z,-5.97
2022-12-18T22:15:35.440Z,-5.97
2022-12-18T22:18:03.889Z,-5.97
2022-12-18T22:20:32.414Z,-5.98
2022-12-18T22:23:06.065Z,-5.99
2022-12-18T22:25:34.459Z,-5.99
2022-12-18T22:28:22.271Z,-5.99
2022-12-18T22:30:50.511Z,-5.99
2022-12-18T22:33:24.123Z,-6.00
2022-12-18T22:35:52.371Z,-6.01
2022-12-18T22:38:20.571Z,-6.02
2022-12-18T22:40:48.861Z,-6.03
2022-12-18T22:43:17.357Z,-6.04
2022-12-18T22:45:46.766Z,-6.07
2022-12-18T22:48:15.775Z,-6.09
2022-12-18T22:50:44.809Z,-6.11
2022-12-18T22:53:13.374Z,-6.14
2022-12-18T22:55:41.800Z,-6.17
2022-12-18T22:58:10.062Z,-6.19
2022-12-18T23:00:38.323Z,-6.20
2022-12-18T23:03:07.292Z,-6.21
2022-12-18T23:05:35.989Z,-6.23
2022-12-18T23:08:04.923Z,-6.25
2022-12-18T23:10:33.236Z,-6.26
2022-12-18T23:13:01.502Z,-6.28
2022-12-18T23:15:30.527Z,-6.30
2022-12-18T23:17:58.988Z,-6.34
2022-12-18T23:20:28.293Z,-6.36
2022-12-18T23:22:58.886Z,-6.38
2022-12-18T23:25:30.480Z,-6.39
2022-12-18T23:27:58.723Z,-6.40
2022-12-18T23:30:26.984Z,-6.40
2022-12-18T23:32:55.845Z,-6.42
2022-12-18T23:35:24.260Z,-6.45
2022-12-18T23:38:00.486Z,-6.48
2022-12-18T23:40:31.410Z,-6.51
2022-12-18T23:43:00.069Z,-6.55
2022-12-18T23:45:28.550Z,-6.57
2022-12-18T23:47:57.447Z,-6.58
2022-12-18T23:50:29.465Z,-6.58
2022-12-18T23:53:02.130Z,-6.60
2022-12-18T23:55:39.133Z,-6.62
2022-12-18T23:58:08.630Z,-6.63
